sensor_id;sensor_type;location;lat;lon;timestamp;temperature;humidity
7694;DHT22;3889;48.162;11.510;2023-04-25T00:01:13;7.40;99.90
7694;DHT22;3889;48.162;11.510;2023-04-25T00:03:41;7.40;99.90
7694;DHT22;3889;48.162;11.510;2023-04-25T00:06:09;7.40;99.90
7694;DHT22;3889;48.162;11.510;2023-04-25T00:08:38;7.40;99.90
7694;DHT22;3889;48.162;11.510;2023-04-25T00:11:06;7.40;99.90
7694;DHT22;3889;48.162;11.510;2023-04-25T00:13:33;7.40;99.90
7694;DHT22;3889;48.162;11.510;2023-04-25T00:16:03;7.40;99.90
7694;DHT22;3889;48.162;11.510;2023-04-25T00:18:31;7.40;99.90
7694;DHT22;3889;48.162;11.510;2023-04-25T00:20:59;7.40;99.90
7694;DHT22;3889;48.162;11.510;2023-04-25T00:23:27;7.50;99.90
7694;DHT22;3889;48.162;11.510;2023-04-25T00:25:55;7.50;99.90
7694;DHT22;3889;48.162;11.510;2023-04-25T00:28:23;7.60;99.90
7694;DHT22;3889;48.162;11.510;2023-04-25T00:30:50;7.60;99.90
7694;DHT22;3889;48.162;11.510;2023-04-25T00:33:20;7.60;99.90
7694;DHT22;3889;48.162;11.510;2023-04-25T00:35:47;7.60;99.90
7694;DHT22;3889;48.162;11.510;2023-04-25T00:38:15;7.60;99.90
7694;DHT22;3889;48.162;11.510;2023-04-25T00:40:43;7.50;99.90
7694;DHT22;3889;48.162;11.510;2023-04-25T00:43:11;7.50;99.90
7694;DHT22;3889;48.162;11.510;2023-04-25T00:45:39;7.50;99.90
7694;DHT22;3889;48.162;11.510;2023-04-25T00:48:07;7.50;99.90
7694;DHT22;3889;48.162;11.510;2023-04-25T00:50:37;7.40;99.90
7694;DHT22;3889;48.162;11.510;2023-04-25T00:53:05;7.30;99.90
7694;DHT22;3889;48.162;11.510;2023-04-25T00:55:36;7.30;99.90
7694;DHT22;3889;48.162;11.510;2023-04-25T00:58:04;7.20;99.90
7694;DHT22;3889;48.162;11.510;2023-04-25T01:00:32;7.20;99.90
7694;DHT22;3889;48.162;11.510;2023-04-25T01:03:00;7.20;99.90
7694;DHT22;3889;48.162;11.510;2023-04-25T01:05:29;7.10;99.90
7694;DHT22;3889;48.162;11.510;2023-04-25T01:07:58;7.00;99.90
7694;DHT22;3889;48.162;11.510;2023-04-25T01:10:27;6.90;99.90
7694;DHT22;3889;48.162;11.510;2023-04-25T01:12:55;6.70;99.90
7694;DHT22;3889;48.162;11.510;2023-04-25T01:15:23;6.70;99.90
7694;DHT22;3889;48.162;11.510;2023-04-25T01:17:51;6.70;99.90
7694;DHT22;3889;48.162;11.510;2023-04-25T01:20:21;6.70;99.90
7694;DHT22;3889;48.162;11.510;2023-04-25T01:22:51;6.80;99.90
7694;DHT22;3889;48.162;11.510;2023-04-25T01:25:21;6.70;99.90
7694;DHT22;3889;48.162;11.510;2023-04-25T01:27:49;6.70;99.90
7694;DHT22;3889;48.162;11.510;2023-04-25T01:30:17;6.70;99.90
7694;DHT22;3889;48.162;11.510;2023-04-25T01:32:45;6.70;99.90
7694;DHT22;3889;48.162;11.510;2023-04-25T01:35:14;6.70;99.90
7694;DHT22;3889;48.162;11.510;2023-04-25T01:37:44;6.60;99.90
7694;DHT22;3889;48.162;11.510;2023-04-25T01:40:14;6.60;99.90
7694;DHT22;3889;48.162;11.510;2023-04-25T01:42:43;6.60;99.90
7694;DHT22;3889;48.162;11.510;2023-04-25T01:45:11;6.50;99.90
7694;DHT22;3889;48.162;11.510;2023-04-25T01:47:40;6.50;99.90
7694;DHT22;3889;48.162;11.510;2023-04-25T01:50:10;6.60;99.90
7694;DHT22;3889;48.162;11.510;2023-04-25T01:52:38;6.50;99.90
7694;DHT22;3889;48.162;11.510;2023-04-25T01:55:07;6.50;99.90
7694;DHT22;3889;48.162;11.510;2023-04-25T01:57:36;6.30;99.90
7694;DHT22;3889;48.162;11.510;2023-04-25T02:00:06;6.30;99.90
7694;DHT22;3889;48.162;11.510;2023-04-25T02:02:35;6.20;99.90
7694;DHT22;3889;48.162;11.510;2023-04-25T02:05:04;6.30;99.90
7694;DHT22;3889;48.162;11.510;2023-04-25T02:07:32;6.40;99.90
7694;DHT22;3889;48.162;11.510;2023-04-25T02:10:00;6.40;99.90
7694;DHT22;3889;48.162;11.510;2023-04-25T02:12:28;6.40;99.90
7694;DHT22;3889;48.162;11.510;2023-04-25T02:14:57;6.40;99.90
7694;DHT22;3889;48.162;11.510;2023-04-25T02:17:25;6.20;99.90
7694;DHT22;3889;48.162;11.510;2023-04-25T02:19:53;6.20;99.90
7694;DHT22;3889;48.162;11.510;2023-04-25T02:22:21;6.20;99.90
7694;DHT22;3889;48.162;11.510;2023-04-25T02:24:49;6.20;99.90
7694;DHT22;3889;48.162;11.510;2023-04-25T02:27:17;6.20;99.90
7694;DHT22;3889;48.162;11.510;2023-04-25T02:29:45;6.20;99.90
7694;DHT22;3889;48.162;11.510;2023-04-25T02:32:14;6.20;99.90
7694;DHT22;3889;48.162;11.510;2023-04-25T02:34:42;6.30;99.90
7694;DHT22;3889;48.162;11.510;2023-04-25T02:37:09;6.30;99.90
7694;DHT22;3889;48.162;11.510;2023-04-25T02:39:37;6.40;99.90
7694;DHT22;3889;48.162;11.510;2023-04-25T02:42:05;6.40;99.90
7694;DHT22;3889;48.162;11.510;2023-04-25T02:44:33;6.40;99.90
7694;DHT22;3889;48.162;11.510;2023-04-25T02:47:01;6.40;99.90
7694;DHT22;3889;48.162;11.510;2023-04-25T02:49:30;6.50;99.90
7694;DHT22;3889;48.162;11.510;2023-04-25T02:51:58;6.60;99.90
7694;DHT22;3889;48.162;11.510;2023-04-25T02:54:26;6.60;99.90
7694;DHT22;3889;48.162;11.510;2023-04-25T02:56:54;6.70;99.90
7694;DHT22;3889;48.162;11.510;2023-04-25T02:59:21;6.80;99.90
7694;DHT22;3889;48.162;11.510;2023-04-25T03:01:49;6.80;99.90
7694;DHT22;3889;48.162;11.510;2023-04-25T03:04:17;6.80;99.90
7694;DHT22;3889;48.162;11.510;2023-04-25T03:06:48;7.00;99.90
7694;DHT22;3889;48.162;11.510;2023-04-25T03:09:16;7.00;99.90
7694;DHT22;3889;48.162;11.510;2023-04-25T03:11:44;7.10;99.90
7694;DHT22;3889;48.162;11.510;2023-04-25T03:14:13;7.20;99.90
7694;DHT22;3889;48.162;11.510;2023-04-25T03:16:41;7.30;99.90
7694;DHT22;3889;48.162;11.510;2023-04-25T03:19:08;7.40;99.90
7694;DHT22;3889;48.162;11.510;2023-04-25T03:21:36;7.30;99.90
7694;DHT22;3889;48.162;11.510;2023-04-25T03:24:06;7.30;99.90
7694;DHT22;3889;48.162;11.510;2023-04-25T03:26:34;7.40;99.90
7694;DHT22;3889;48.162;11.510;2023-04-25T03:29:01;7.40;99.90
7694;DHT22;3889;48.162;11.510;2023-04-25T03:31:30;7.30;99.90
7694;DHT22;3889;48.162;11.510;2023-04-25T03:33:58;7.30;99.90
7694;DHT22;3889;48.162;11.510;2023-04-25T03:36:26;7.20;99.90
7694;DHT22;3889;48.162;11.510;2023-04-25T03:38:53;7.30;99.90
7694;DHT22;3889;48.162;11.510;2023-04-25T03:41:22;7.20;99.90
7694;DHT22;3889;48.162;11.510;2023-04-25T03:43:51;7.20;99.90
7694;DHT22;3889;48.162;11.510;2023-04-25T03:46:19;7.10;99.90
7694;DHT22;3889;48.162;11.510;2023-04-25T03:48:47;7.10;99.90
7694;DHT22;3889;48.162;11.510;2023-04-25T03:51:14;7.00;99.90
7694;DHT22;3889;48.162;11.510;2023-04-25T03:53:42;7.00;99.90
7694;DHT22;3889;48.162;11.510;2023-04-25T03:56:10;7.00;99.90
7694;DHT22;3889;48.162;11.510;2023-04-25T03:58:39;7.00;99.90
7694;DHT22;3889;48.162;11.510;2023-04-25T04:01:07;7.10;99.90
7694;DHT22;3889;48.162;11.510;2023-04-25T04:03:35;7.10;99.90
7694;DHT22;3889;48.162;11.510;2023-04-25T04:06:04;7.10;99.90
7694;DHT22;3889;48.162;11.510;2023-04-25T04:08:33;7.10;99.90
7694;DHT22;3889;48.162;11.510;2023-04-25T04:11:01;7.10;99.90
7694;DHT22;3889;48.162;11.510;2023-04-25T04:13:29;7.10;99.90
7694;DHT22;3889;48.162;11.510;2023-04-25T04:15:58;7.10;99.90
7694;DHT22;3889;48.162;11.510;2023-04-25T04:18:26;7.10;99.90
7694;DHT22;3889;48.162;11.510;2023-04-25T04:20:54;7.10;99.90
7694;DHT22;3889;48.162;11.510;2023-04-25T04:23:24;7.10;99.90
7694;DHT22;3889;48.162;11.510;2023-04-25T04:25:54;7.10;99.90
7694;DHT22;3889;48.162;11.510;2023-04-25T04:28:22;7.20;99.90
7694;DHT22;3889;48.162;11.510;2023-04-25T04:30:50;7.20;99.90
7694;DHT22;3889;48.162;11.510;2023-04-25T04:33:20;7.20;99.90
7694;DHT22;3889;48.162;11.510;2023-04-25T04:35:50;7.20;99.90
7694;DHT22;3889;48.162;11.510;2023-04-25T04:38:20;7.20;99.90
7694;DHT22;3889;48.162;11.510;2023-04-25T04:40:48;7.10;99.90
7694;DHT22;3889;48.162;11.510;2023-04-25T04:43:16;7.10;99.90
7694;DHT22;3889;48.162;11.510;2023-04-25T04:45:45;7.10;99.90
7694;DHT22;3889;48.162;11.510;2023-04-25T04:48:14;7.20;99.90
7694;DHT22;3889;48.162;11.510;2023-04-25T04:50:44;7.20;99.90
7694;DHT22;3889;48.162;11.510;2023-04-25T04:53:12;7.10;99.90
7694;DHT22;3889;48.162;11.510;2023-04-25T04:55:42;7.10;99.90
7694;DHT22;3889;48.162;11.510;2023-04-25T04:58:15;7.20;99.90
7694;DHT22;3889;48.162;11.510;2023-04-25T05:00:45;7.30;99.90
7694;DHT22;3889;48.162;11.510;2023-04-25T05:03:13;7.30;99.90
7694;DHT22;3889;48.162;11.510;2023-04-25T05:08:14;7.40;99.90
7694;DHT22;3889;48.162;11.510;2023-04-25T05:10:42;7.40;99.90
7694;DHT22;3889;48.162;11.510;2023-04-25T05:13:10;7.50;99.90
7694;DHT22;3889;48.162;11.510;2023-04-25T05:15:38;7.50;99.90
7694;DHT22;3889;48.162;11.510;2023-04-25T05:18:06;7.50;99.90
7694;DHT22;3889;48.162;11.510;2023-04-25T05:20:34;7.50;99.90
7694;DHT22;3889;48.162;11.510;2023-04-25T05:23:01;7.50;99.90
7694;DHT22;3889;48.162;11.510;2023-04-25T05:25:31;7.50;99.90
7694;DHT22;3889;48.162;11.510;2023-04-25T05:27:59;7.50;99.90
7694;DHT22;3889;48.162;11.510;2023-04-25T05:30:27;7.40;99.90
7694;DHT22;3889;48.162;11.510;2023-04-25T05:32:55;7.40;99.90
7694;DHT22;3889;48.162;11.510;2023-04-25T05:35:23;7.40;99.90
7694;DHT22;3889;48.162;11.510;2023-04-25T05:37:53;7.50;99.90
7694;DHT22;3889;48.162;11.510;2023-04-25T05:40:20;7.50;99.90
7694;DHT22;3889;48.162;11.510;2023-04-25T05:42:50;7.50;99.90
7694;DHT22;3889;48.162;11.510;2023-04-25T05:45:17;7.50;99.90
7694;DHT22;3889;48.162;11.510;2023-04-25T05:47:45;7.60;99.90
7694;DHT22;3889;48.162;11.510;2023-04-25T05:50:13;7.60;99.90
7694;DHT22;3889;48.162;11.510;2023-04-25T05:52:41;7.60;99.90
7694;DHT22;3889;48.162;11.510;2023-04-25T05:55:09;7.60;99.90
7694;DHT22;3889;48.162;11.510;2023-04-25T05:57:37;7.60;99.90
7694;DHT22;3889;48.162;11.510;2023-04-25T06:00:11;7.50;99.90
7694;DHT22;3889;48.162;11.510;2023-04-25T06:02:39;7.30;99.90
7694;DHT22;3889;48.162;11.510;2023-04-25T06:05:08;7.20;99.90
7694;DHT22;3889;48.162;11.510;2023-04-25T06:07:36;7.20;99.90
7694;DHT22;3889;48.162;11.510;2023-04-25T06:10:06;7.00;99.90
7694;DHT22;3889;48.162;11.510;2023-04-25T06:12:34;6.90;99.90
7694;DHT22;3889;48.162;11.510;2023-04-25T06:15:02;6.90;99.90
7694;DHT22;3889;48.162;11.510;2023-04-25T06:17:40;6.90;99.90
7694;DHT22;3889;48.162;11.510;2023-04-25T06:20:09;6.80;99.90
7694;DHT22;3889;48.162;11.510;2023-04-25T06:22:37;6.90;99.90
7694;DHT22;3889;48.162;11.510;2023-04-25T06:25:05;6.90;99.90
7694;DHT22;3889;48.162;11.510;2023-04-25T06:27:33;7.00;99.90
7694;DHT22;3889;48.162;11.510;2023-04-25T06:30:01;7.10;99.90
7694;DHT22;3889;48.162;11.510;2023-04-25T06:32:29;7.20;99.90
7694;DHT22;3889;48.162;11.510;2023-04-25T06:34:58;7.20;99.90
7694;DHT22;3889;48.162;11.510;2023-04-25T06:37:26;7.20;99.90
7694;DHT22;3889;48.162;11.510;2023-04-25T06:39:54;7.20;99.90
7694;DHT22;3889;48.162;11.510;2023-04-25T06:42:22;7.20;99.90
7694;DHT22;3889;48.162;11.510;2023-04-25T06:44:50;7.30;99.90
7694;DHT22;3889;48.162;11.510;2023-04-25T06:47:17;7.60;99.90
7694;DHT22;3889;48.162;11.510;2023-04-25T06:49:45;7.80;99.90
7694;DHT22;3889;48.162;11.510;2023-04-25T06:52:14;8.30;99.90
7694;DHT22;3889;48.162;11.510;2023-04-25T06:54:44;8.50;99.90
7694;DHT22;3889;48.162;11.510;2023-04-25T06:57:12;8.90;99.90
7694;DHT22;3889;48.162;11.510;2023-04-25T06:59:40;9.10;99.90
7694;DHT22;3889;48.162;11.510;2023-04-25T07:02:08;9.00;99.90
7694;DHT22;3889;48.162;11.510;2023-04-25T07:04:36;9.10;99.90
7694;DHT22;3889;48.162;11.510;2023-04-25T07:07:04;9.20;99.90
7694;DHT22;3889;48.162;11.510;2023-04-25T07:09:33;9.00;99.90
7694;DHT22;3889;48.162;11.510;2023-04-25T07:12:01;8.90;99.90
7694;DHT22;3889;48.162;11.510;2023-04-25T07:14:29;8.80;99.90
7694;DHT22;3889;48.162;11.510;2023-04-25T07:16:57;8.70;99.90
7694;DHT22;3889;48.162;11.510;2023-04-25T07:19:25;8.60;99.90
7694;DHT22;3889;48.162;11.510;2023-04-25T07:21:53;8.60;99.90
7694;DHT22;3889;48.162;11.510;2023-04-25T07:24:21;8.70;99.90
7694;DHT22;3889;48.162;11.510;2023-04-25T07:26:50;8.80;99.90
7694;DHT22;3889;48.162;11.510;2023-04-25T07:29:18;8.90;99.90
7694;DHT22;3889;48.162;11.510;2023-04-25T07:31:46;9.10;99.90
7694;DHT22;3889;48.162;11.510;2023-04-25T07:34:14;9.10;99.90
7694;DHT22;3889;48.162;11.510;2023-04-25T07:36:43;9.20;99.90
7694;DHT22;3889;48.162;11.510;2023-04-25T07:39:11;9.30;99.90
7694;DHT22;3889;48.162;11.510;2023-04-25T07:41:39;9.20;99.90
7694;DHT22;3889;48.162;11.510;2023-04-25T07:44:08;9.30;99.90
7694;DHT22;3889;48.162;11.510;2023-04-25T07:46:36;9.40;99.90
7694;DHT22;3889;48.162;11.510;2023-04-25T07:49:04;9.50;99.90
7694;DHT22;3889;48.162;11.510;2023-04-25T07:51:32;9.70;99.90
7694;DHT22;3889;48.162;11.510;2023-04-25T07:54:00;9.90;99.90
7694;DHT22;3889;48.162;11.510;2023-04-25T07:56:28;10.10;99.90
7694;DHT22;3889;48.162;11.510;2023-04-25T07:59:12;10.20;99.90
7694;DHT22;3889;48.162;11.510;2023-04-25T08:01:40;10.30;99.90
7694;DHT22;3889;48.162;11.510;2023-04-25T08:04:07;10.50;99.90
7694;DHT22;3889;48.162;11.510;2023-04-25T08:06:35;10.80;99.90
7694;DHT22;3889;48.162;11.510;2023-04-25T08:09:04;11.20;99.90
7694;DHT22;3889;48.162;11.510;2023-04-25T08:11:32;11.50;99.90
7694;DHT22;3889;48.162;11.510;2023-04-25T08:13:59;11.50;99.90
7694;DHT22;3889;48.162;11.510;2023-04-25T08:16:29;11.30;99.90
7694;DHT22;3889;48.162;11.510;2023-04-25T08:18:58;11.00;99.90
7694;DHT22;3889;48.162;11.510;2023-04-25T08:21:26;10.90;99.90
7694;DHT22;3889;48.162;11.510;2023-04-25T08:23:54;10.90;99.90
7694;DHT22;3889;48.162;11.510;2023-04-25T08:26:24;10.90;99.90
7694;DHT22;3889;48.162;11.510;2023-04-25T08:28:52;10.70;99.90
7694;DHT22;3889;48.162;11.510;2023-04-25T08:31:19;10.40;99.90
7694;DHT22;3889;48.162;11.510;2023-04-25T08:33:49;10.40;99.90
7694;DHT22;3889;48.162;11.510;2023-04-25T08:36:18;10.40;99.90
7694;DHT22;3889;48.162;11.510;2023-04-25T08:39:03;10.70;99.90
7694;DHT22;3889;48.162;11.510;2023-04-25T08:41:31;11.00;99.90
7694;DHT22;3889;48.162;11.510;2023-04-25T08:44:01;11.00;99.90
7694;DHT22;3889;48.162;11.510;2023-04-25T08:46:31;11.20;99.90
7694;DHT22;3889;48.162;11.510;2023-04-25T08:49:02;11.20;99.90
7694;DHT22;3889;48.162;11.510;2023-04-25T08:51:31;11.20;99.90
7694;DHT22;3889;48.162;11.510;2023-04-25T08:54:08;11.20;99.90
7694;DHT22;3889;48.162;11.510;2023-04-25T08:56:57;11.10;99.90
7694;DHT22;3889;48.162;11.510;2023-04-25T08:59:25;11.10;99.90
7694;DHT22;3889;48.162;11.510;2023-04-25T09:01:55;11.30;99.90
7694;DHT22;3889;48.162;11.510;2023-04-25T09:04:24;11.30;99.90
7694;DHT22;3889;48.162;11.510;2023-04-25T09:06:52;11.20;99.90
7694;DHT22;3889;48.162;11.510;2023-04-25T09:09:20;11.00;99.90
7694;DHT22;3889;48.162;11.510;2023-04-25T09:11:48;11.10;99.90
7694;DHT22;3889;48.162;11.510;2023-04-25T09:14:18;11.10;99.90
7694;DHT22;3889;48.162;11.510;2023-04-25T09:17:01;11.10;99.90
7694;DHT22;3889;48.162;11.510;2023-04-25T09:19:32;10.90;99.90
7694;DHT22;3889;48.162;11.510;2023-04-25T09:22:07;10.70;99.90
7694;DHT22;3889;48.162;11.510;2023-04-25T09:24:37;10.80;99.90
7694;DHT22;3889;48.162;11.510;2023-04-25T09:27:06;10.80;99.90
7694;DHT22;3889;48.162;11.510;2023-04-25T09:29:35;10.90;99.90
7694;DHT22;3889;48.162;11.510;2023-04-25T09:32:18;11.00;99.90
7694;DHT22;3889;48.162;11.510;2023-04-25T09:34:49;11.10;99.90
7694;DHT22;3889;48.162;11.510;2023-04-25T09:37:18;11.30;99.90
7694;DHT22;3889;48.162;11.510;2023-04-25T09:39:48;11.70;99.90
7694;DHT22;3889;48.162;11.510;2023-04-25T09:42:17;11.70;99.90
7694;DHT22;3889;48.162;11.510;2023-04-25T09:44:45;11.50;99.90
7694;DHT22;3889;48.162;11.510;2023-04-25T09:47:15;11.50;99.90
7694;DHT22;3889;48.162;11.510;2023-04-25T09:49:44;11.40;99.90
7694;DHT22;3889;48.162;11.510;2023-04-25T09:52:16;11.70;99.90
7694;DHT22;3889;48.162;11.510;2023-04-25T09:54:44;12.40;99.90
7694;DHT22;3889;48.162;11.510;2023-04-25T09:57:13;12.80;99.90
7694;DHT22;3889;48.162;11.510;2023-04-25T09:59:45;13.30;99.90
7694;DHT22;3889;48.162;11.510;2023-04-25T10:02:15;13.50;99.90
7694;DHT22;3889;48.162;11.510;2023-04-25T10:04:46;13.20;99.90
7694;DHT22;3889;48.162;11.510;2023-04-25T10:07:16;13.00;99.90
7694;DHT22;3889;48.162;11.510;2023-04-25T10:09:48;13.40;99.90
7694;DHT22;3889;48.162;11.510;2023-04-25T10:12:17;13.90;99.90
7694;DHT22;3889;48.162;11.510;2023-04-25T10:14:46;14.10;99.90
7694;DHT22;3889;48.162;11.510;2023-04-25T10:17:14;14.40;99.90
7694;DHT22;3889;48.162;11.510;2023-04-25T10:19:42;14.60;99.90
7694;DHT22;3889;48.162;11.510;2023-04-25T10:22:14;14.50;99.90
7694;DHT22;3889;48.162;11.510;2023-04-25T10:24:46;14.20;99.90
7694;DHT22;3889;48.162;11.510;2023-04-25T10:27:14;13.80;99.90
7694;DHT22;3889;48.162;11.510;2023-04-25T10:29:42;13.20;99.90
7694;DHT22;3889;48.162;11.510;2023-04-25T10:32:10;12.80;99.90
7694;DHT22;3889;48.162;11.510;2023-04-25T10:34:40;12.30;99.90
7694;DHT22;3889;48.162;11.510;2023-04-25T10:37:09;12.00;99.90
7694;DHT22;3889;48.162;11.510;2023-04-25T10:39:40;11.70;99.90
7694;DHT22;3889;48.162;11.510;2023-04-25T10:42:09;11.30;99.90
7694;DHT22;3889;48.162;11.510;2023-04-25T10:44:38;11.20;99.90
7694;DHT22;3889;48.162;11.510;2023-04-25T10:47:07;11.00;99.90
7694;DHT22;3889;48.162;11.510;2023-04-25T10:49:37;10.90;99.90
7694;DHT22;3889;48.162;11.510;2023-04-25T10:52:17;11.00;99.90
7694;DHT22;3889;48.162;11.510;2023-04-25T10:54:49;10.90;99.90
7694;DHT22;3889;48.162;11.510;2023-04-25T10:57:37;10.90;99.90
7694;DHT22;3889;48.162;11.510;2023-04-25T11:00:08;11.00;99.90
7694;DHT22;3889;48.162;11.510;2023-04-25T11:02:40;10.80;99.90
7694;DHT22;3889;48.162;11.510;2023-04-25T11:05:09;10.70;99.90
7694;DHT22;3889;48.162;11.510;2023-04-25T11:07:41;10.50;99.90
7694;DHT22;3889;48.162;11.510;2023-04-25T11:10:18;10.40;99.90
7694;DHT22;3889;48.162;11.510;2023-04-25T11:12:48;10.00;99.90
7694;DHT22;3889;48.162;11.510;2023-04-25T11:15:16;9.70;99.90
7694;DHT22;3889;48.162;11.510;2023-04-25T11:17:44;9.80;99.90
7694;DHT22;3889;48.162;11.510;2023-04-25T11:20:13;9.80;99.90
7694;DHT22;3889;48.162;11.510;2023-04-25T11:22:44;9.90;99.90
7694;DHT22;3889;48.162;11.510;2023-04-25T11:25:14;9.90;99.90
7694;DHT22;3889;48.162;11.510;2023-04-25T11:27:53;9.90;99.90
7694;DHT22;3889;48.162;11.510;2023-04-25T11:30:24;10.10;99.90
7694;DHT22;3889;48.162;11.510;2023-04-25T11:32:52;10.20;99.90
7694;DHT22;3889;48.162;11.510;2023-04-25T11:35:20;10.20;99.90
7694;DHT22;3889;48.162;11.510;2023-04-25T11:37:49;10.50;99.90
7694;DHT22;3889;48.162;11.510;2023-04-25T11:40:17;10.60;99.90
7694;DHT22;3889;48.162;11.510;2023-04-25T11:42:46;10.60;99.90
7694;DHT22;3889;48.162;11.510;2023-04-25T11:45:15;10.50;99.90
7694;DHT22;3889;48.162;11.510;2023-04-25T11:47:45;10.50;99.90
7694;DHT22;3889;48.162;11.510;2023-04-25T11:50:13;10.20;99.90
7694;DHT22;3889;48.162;11.510;2023-04-25T11:52:42;9.80;99.90
7694;DHT22;3889;48.162;11.510;2023-04-25T11:55:13;9.70;99.90
7694;DHT22;3889;48.162;11.510;2023-04-25T11:57:42;9.60;99.90
7694;DHT22;3889;48.162;11.510;2023-04-25T12:00:12;9.30;99.90
7694;DHT22;3889;48.162;11.510;2023-04-25T12:02:47;9.20;99.90
7694;DHT22;3889;48.162;11.510;2023-04-25T12:05:15;9.10;99.90
7694;DHT22;3889;48.162;11.510;2023-04-25T12:07:46;8.60;99.90
7694;DHT22;3889;48.162;11.510;2023-04-25T12:10:16;8.90;99.90
7694;DHT22;3889;48.162;11.510;2023-04-25T12:12:46;9.10;99.90
7694;DHT22;3889;48.162;11.510;2023-04-25T12:15:15;9.20;99.90
7694;DHT22;3889;48.162;11.510;2023-04-25T12:17:48;9.30;99.90
7694;DHT22;3889;48.162;11.510;2023-04-25T12:20:17;9.40;99.90
7694;DHT22;3889;48.162;11.510;2023-04-25T12:22:47;9.50;99.90
7694;DHT22;3889;48.162;11.510;2023-04-25T12:25:34;9.30;99.90
7694;DHT22;3889;48.162;11.510;2023-04-25T12:28:10;9.20;99.90
7694;DHT22;3889;48.162;11.510;2023-04-25T12:30:54;9.40;99.90
7694;DHT22;3889;48.162;11.510;2023-04-25T12:33:25;9.40;99.90
7694;DHT22;3889;48.162;11.510;2023-04-25T12:35:54;9.40;99.90
7694;DHT22;3889;48.162;11.510;2023-04-25T12:38:23;9.70;99.90
7694;DHT22;3889;48.162;11.510;2023-04-25T12:40:52;9.80;99.90
7694;DHT22;3889;48.162;11.510;2023-04-25T12:43:20;10.00;99.90
7694;DHT22;3889;48.162;11.510;2023-04-25T12:45:48;10.00;99.90
7694;DHT22;3889;48.162;11.510;2023-04-25T12:48:17;9.90;99.90
7694;DHT22;3889;48.162;11.510;2023-04-25T12:50:47;9.90;99.90
7694;DHT22;3889;48.162;11.510;2023-04-25T12:53:16;9.70;99.90
7694;DHT22;3889;48.162;11.510;2023-04-25T12:55:44;9.70;99.90
7694;DHT22;3889;48.162;11.510;2023-04-25T12:58:13;9.60;99.90
7694;DHT22;3889;48.162;11.510;2023-04-25T13:00:41;9.50;99.90
7694;DHT22;3889;48.162;11.510;2023-04-25T13:03:09;9.50;99.90
7694;DHT22;3889;48.162;11.510;2023-04-25T13:05:39;9.40;99.90
7694;DHT22;3889;48.162;11.510;2023-04-25T13:08:09;9.40;99.90
7694;DHT22;3889;48.162;11.510;2023-04-25T13:10:36;9.30;99.90
7694;DHT22;3889;48.162;11.510;2023-04-25T13:13:05;9.10;99.90
7694;DHT22;3889;48.162;11.510;2023-04-25T13:15:33;8.90;99.90
7694;DHT22;3889;48.162;11.510;2023-04-25T13:18:02;8.90;99.90
7694;DHT22;3889;48.162;11.510;2023-04-25T13:20:30;8.80;99.90
7694;DHT22;3889;48.162;11.510;2023-04-25T13:22:58;8.70;99.90
7694;DHT22;3889;48.162;11.510;2023-04-25T13:25:30;8.70;99.90
7694;DHT22;3889;48.162;11.510;2023-04-25T13:27:57;8.50;99.90
7694;DHT22;3889;48.162;11.510;2023-04-25T13:30:26;8.30;99.90
7694;DHT22;3889;48.162;11.510;2023-04-25T13:32:54;8.00;99.90
7694;DHT22;3889;48.162;11.510;2023-04-25T13:35:23;7.60;99.90
7694;DHT22;3889;48.162;11.510;2023-04-25T13:37:51;7.30;99.90
7694;DHT22;3889;48.162;11.510;2023-04-25T13:40:19;7.30;99.90
7694;DHT22;3889;48.162;11.510;2023-04-25T13:42:52;7.30;99.90
7694;DHT22;3889;48.162;11.510;2023-04-25T13:45:20;7.40;99.90
7694;DHT22;3889;48.162;11.510;2023-04-25T13:47:48;7.80;99.90
7694;DHT22;3889;48.162;11.510;2023-04-25T13:50:16;8.10;99.90
7694;DHT22;3889;48.162;11.510;2023-04-25T13:52:44;8.20;99.90
7694;DHT22;3889;48.162;11.510;2023-04-25T13:55:12;8.20;99.90
7694;DHT22;3889;48.162;11.510;2023-04-25T13:57:40;8.00;99.90
7694;DHT22;3889;48.162;11.510;2023-04-25T14:00:10;7.90;99.90
7694;DHT22;3889;48.162;11.510;2023-04-25T14:02:39;7.90;99.90
7694;DHT22;3889;48.162;11.510;2023-04-25T14:05:07;7.60;99.90
7694;DHT22;3889;48.162;11.510;2023-04-25T14:07:36;7.70;99.90
7694;DHT22;3889;48.162;11.510;2023-04-25T14:10:05;7.80;99.90
7694;DHT22;3889;48.162;11.510;2023-04-25T14:12:33;7.60;99.90
7694;DHT22;3889;48.162;11.510;2023-04-25T14:15:02;7.70;99.90
7694;DHT22;3889;48.162;11.510;2023-04-25T14:17:31;7.90;99.90
7694;DHT22;3889;48.162;11.510;2023-04-25T14:19:59;8.00;99.90
7694;DHT22;3889;48.162;11.510;2023-04-25T14:22:26;8.20;99.90
7694;DHT22;3889;48.162;11.510;2023-04-25T14:24:54;8.40;99.90
7694;DHT22;3889;48.162;11.510;2023-04-25T14:27:22;8.40;99.90
7694;DHT22;3889;48.162;11.510;2023-04-25T14:29:52;8.50;99.90
7694;DHT22;3889;48.162;11.510;2023-04-25T14:32:20;8.70;99.90
7694;DHT22;3889;48.162;11.510;2023-04-25T14:34:49;8.70;99.90
7694;DHT22;3889;48.162;11.510;2023-04-25T14:37:17;8.90;99.90
7694;DHT22;3889;48.162;11.510;2023-04-25T14:39:45;9.10;99.90
7694;DHT22;3889;48.162;11.510;2023-04-25T14:42:13;9.20;99.90
7694;DHT22;3889;48.162;11.510;2023-04-25T14:44:41;9.40;99.90
7694;DHT22;3889;48.162;11.510;2023-04-25T14:47:08;9.30;99.90
7694;DHT22;3889;48.162;11.510;2023-04-25T14:49:36;9.20;99.90
7694;DHT22;3889;48.162;11.510;2023-04-25T14:52:05;9.30;99.90
7694;DHT22;3889;48.162;11.510;2023-04-25T14:54:33;9.30;99.90
7694;DHT22;3889;48.162;11.510;2023-04-25T14:57:01;9.30;99.90
7694;DHT22;3889;48.162;11.510;2023-04-25T14:59:29;9.40;99.90
7694;DHT22;3889;48.162;11.510;2023-04-25T15:01:57;9.50;99.90
7694;DHT22;3889;48.162;11.510;2023-04-25T15:04:25;9.40;99.90
7694;DHT22;3889;48.162;11.510;2023-04-25T15:06:54;9.40;99.90
7694;DHT22;3889;48.162;11.510;2023-04-25T15:09:23;9.40;99.90
7694;DHT22;3889;48.162;11.510;2023-04-25T15:11:51;9.40;99.90
7694;DHT22;3889;48.162;11.510;2023-04-25T15:14:19;9.50;99.90
7694;DHT22;3889;48.162;11.510;2023-04-25T15:16:47;9.50;99.90
7694;DHT22;3889;48.162;11.510;2023-04-25T15:19:15;9.50;99.90
7694;DHT22;3889;48.162;11.510;2023-04-25T15:21:43;9.60;99.90
7694;DHT22;3889;48.162;11.510;2023-04-25T15:24:11;9.70;99.90
7694;DHT22;3889;48.162;11.510;2023-04-25T15:26:43;9.70;99.90
7694;DHT22;3889;48.162;11.510;2023-04-25T15:29:11;9.70;99.90
7694;DHT22;3889;48.162;11.510;2023-04-25T15:31:39;9.40;99.90
7694;DHT22;3889;48.162;11.510;2023-04-25T15:34:07;9.60;99.90
7694;DHT22;3889;48.162;11.510;2023-04-25T15:36:35;9.30;99.90
7694;DHT22;3889;48.162;11.510;2023-04-25T15:39:03;9.30;99.90
7694;DHT22;3889;48.162;11.510;2023-04-25T15:41:31;9.30;99.90
7694;DHT22;3889;48.162;11.510;2023-04-25T15:44:00;9.00;99.90
7694;DHT22;3889;48.162;11.510;2023-04-25T15:46:28;8.80;99.90
7694;DHT22;3889;48.162;11.510;2023-04-25T15:48:57;8.60;99.90
7694;DHT22;3889;48.162;11.510;2023-04-25T15:51:26;8.60;99.90
7694;DHT22;3889;48.162;11.510;2023-04-25T15:53:53;8.70;99.90
7694;DHT22;3889;48.162;11.510;2023-04-25T15:56:22;8.70;99.90
7694;DHT22;3889;48.162;11.510;2023-04-25T15:58:50;8.60;99.90
7694;DHT22;3889;48.162;11.510;2023-04-25T16:01:20;8.60;99.90
7694;DHT22;3889;48.162;11.510;2023-04-25T16:03:50;8.40;99.90
7694;DHT22;3889;48.162;11.510;2023-04-25T16:06:19;8.40;99.90
7694;DHT22;3889;48.162;11.510;2023-04-25T16:08:47;8.50;99.90
7694;DHT22;3889;48.162;11.510;2023-04-25T16:11:15;8.40;99.90